sensor_id;sensor_type;location;lat;lon;timestamp;P1;durP1;ratioP1;P2;durP2;ratioP2
18929;SDS011;43305;52.186;5.598;2023-12-22T00:02:23;13.95;;;2.13;;
18929;SDS011;43305;52.186;5.598;2023-12-22T00:04:52;22.00;;;2.38;;
18929;SDS011;43305;52.186;5.598;2023-12-22T00:07:19;17.00;;;2.33;;
18929;SDS011;43305;52.186;5.598;2023-12-22T00:09:46;17.73;;;1.90;;
18929;SDS011;43305;52.186;5.598;2023-12-22T00:12:16;14.20;;;1.58;;
18929;SDS011;43305;52.186;5.598;2023-12-22T00:14:43;10.65;;;1.58;;
18929;SDS011;43305;52.186;5.598;2023-12-22T00:17:12;10.50;;;1.20;;
18929;SDS011;43305;52.186;5.598;2023-12-22T00:19:42;6.35;;;1.30;;
18929;SDS011;43305;52.186;5.598;2023-12-22T00:22:12;6.70;;;1.20;;
18929;SDS011;43305;52.186;5.598;2023-12-22T00:24:42;8.32;;;1.38;;
18929;SDS011;43305;52.186;5.598;2023-12-22T00:27:12;7.38;;;1.02;;
18929;SDS011;43305;52.186;5.598;2023-12-22T00:29:38;11.27;;;1.38;;
18929;SDS011;43305;52.186;5.598;2023-12-22T00:32:05;8.48;;;2.08;;
18929;SDS011;43305;52.186;5.598;2023-12-22T00:34:34;9.63;;;1.77;;
18929;SDS011;43305;52.186;5.598;2023-12-22T00:37:01;10.38;;;1.30;;
18929;SDS011;43305;52.186;5.598;2023-12-22T00:39:31;8.63;;;1.33;;
18929;SDS011;43305;52.186;5.598;2023-12-22T00:41:57;7.22;;;1.10;;
18929;SDS011;43305;52.186;5.598;2023-12-22T00:44:24;8.70;;;1.25;;
18929;SDS011;43305;52.186;5.598;2023-12-22T00:46:52;9.50;;;1.25;;
18929;SDS011;43305;52.186;5.598;2023-12-22T00:49:19;9.13;;;1.40;;
18929;SDS011;43305;52.186;5.598;2023-12-22T00:51:49;12.57;;;1.50;;
18929;SDS011;43305;52.186;5.598;2023-12-22T00:54:15;13.23;;;1.45;;
18929;SDS011;43305;52.186;5.598;2023-12-22T00:56:44;8.60;;;1.40;;
18929;SDS011;43305;52.186;5.598;2023-12-22T00:59:10;12.18;;;1.80;;
18929;SDS011;43305;52.186;5.598;2023-12-22T01:01:37;10.77;;;1.42;;
18929;SDS011;43305;52.186;5.598;2023-12-22T01:04:04;10.68;;;1.30;;
18929;SDS011;43305;52.186;5.598;2023-12-22T01:06:31;10.00;;;1.90;;
18929;SDS011;43305;52.186;5.598;2023-12-22T01:08:58;12.95;;;1.50;;
18929;SDS011;43305;52.186;5.598;2023-12-22T01:11:25;10.45;;;1.45;;
18929;SDS011;43305;52.186;5.598;2023-12-22T01:13:53;12.05;;;1.10;;
18929;SDS011;43305;52.186;5.598;2023-12-22T01:16:20;12.80;;;1.77;;
18929;SDS011;43305;52.186;5.598;2023-12-22T01:18:51;15.90;;;1.77;;
18929;SDS011;43305;52.186;5.598;2023-12-22T01:21:21;10.50;;;1.63;;
18929;SDS011;43305;52.186;5.598;2023-12-22T01:23:48;9.95;;;1.35;;
18929;SDS011;43305;52.186;5.598;2023-12-22T01:26:18;11.75;;;1.10;;
18929;SDS011;43305;52.186;5.598;2023-12-22T01:28:47;7.15;;;1.00;;
18929;SDS011;43305;52.186;5.598;2023-12-22T01:31:15;9.02;;;1.40;;
18929;SDS011;43305;52.186;5.598;2023-12-22T01:33:42;7.32;;;1.48;;
18929;SDS011;43305;52.186;5.598;2023-12-22T01:36:12;7.63;;;1.48;;
18929;SDS011;43305;52.186;5.598;2023-12-22T01:38:39;9.10;;;1.42;;
18929;SDS011;43305;52.186;5.598;2023-12-22T01:41:06;12.82;;;1.73;;
18929;SDS011;43305;52.186;5.598;2023-12-22T01:43:33;15.18;;;1.95;;
18929;SDS011;43305;52.186;5.598;2023-12-22T01:46:00;8.77;;;1.30;;
18929;SDS011;43305;52.186;5.598;2023-12-22T01:48:29;11.75;;;1.40;;
18929;SDS011;43305;52.186;5.598;2023-12-22T01:50:57;13.80;;;1.88;;
18929;SDS011;43305;52.186;5.598;2023-12-22T01:53:25;12.43;;;1.63;;
18929;SDS011;43305;52.186;5.598;2023-12-22T01:55:53;12.43;;;1.30;;
18929;SDS011;43305;52.186;5.598;2023-12-22T01:58:21;18.02;;;2.13;;
18929;SDS011;43305;52.186;5.598;2023-12-22T02:00:49;14.20;;;1.52;;
18929;SDS011;43305;52.186;5.598;2023-12-22T02:03:19;21.90;;;1.98;;
18929;SDS011;43305;52.186;5.598;2023-12-22T02:05:48;13.30;;;1.80;;
18929;SDS011;43305;52.186;5.598;2023-12-22T02:08:16;12.93;;;1.90;;
18929;SDS011;43305;52.186;5.598;2023-12-22T02:10:44;13.90;;;1.80;;
18929;SDS011;43305;52.186;5.598;2023-12-22T02:13:11;15.80;;;1.77;;
18929;SDS011;43305;52.186;5.598;2023-12-22T02:15:40;17.00;;;2.17;;
18929;SDS011;43305;52.186;5.598;2023-12-22T02:18:09;13.52;;;2.15;;
18929;SDS011;43305;52.186;5.598;2023-12-22T02:20:40;16.42;;;2.10;;
18929;SDS011;43305;52.186;5.598;2023-12-22T02:23:10;16.30;;;1.83;;
18929;SDS011;43305;52.186;5.598;2023-12-22T02:25:37;13.85;;;1.90;;
18929;SDS011;43305;52.186;5.598;2023-12-22T02:28:05;19.95;;;2.55;;
18929;SDS011;43305;52.186;5.598;2023-12-22T02:30:37;14.20;;;1.98;;
18929;SDS011;43305;52.186;5.598;2023-12-22T02:33:09;21.23;;;2.67;;
18929;SDS011;43305;52.186;5.598;2023-12-22T02:35:38;18.17;;;2.83;;
18929;SDS011;43305;52.186;5.598;2023-12-22T02:38:07;21.98;;;2.60;;
18929;SDS011;43305;52.186;5.598;2023-12-22T02:40:36;24.63;;;2.58;;
18929;SDS011;43305;52.186;5.598;2023-12-22T02:43:04;22.10;;;3.28;;
18929;SDS011;43305;52.186;5.598;2023-12-22T02:45:33;24.33;;;2.85;;
18929;SDS011;43305;52.186;5.598;2023-12-22T02:47:59;19.63;;;2.67;;
18929;SDS011;43305;52.186;5.598;2023-12-22T02:50:26;30.40;;;2.95;;
18929;SDS011;43305;52.186;5.598;2023-12-22T02:52:53;18.58;;;2.33;;
18929;SDS011;43305;52.186;5.598;2023-12-22T02:55:20;9.50;;;1.35;;
18929;SDS011;43305;52.186;5.598;2023-12-22T02:57:49;9.68;;;1.15;;
18929;SDS011;43305;52.186;5.598;2023-12-22T03:00:16;8.60;;;0.90;;
18929;SDS011;43305;52.186;5.598;2023-12-22T03:02:46;7.53;;;0.70;;
18929;SDS011;43305;52.186;5.598;2023-12-22T03:05:15;6.72;;;0.93;;
18929;SDS011;43305;52.186;5.598;2023-12-22T03:07:42;8.68;;;1.10;;
18929;SDS011;43305;52.186;5.598;2023-12-22T03:10:10;6.13;;;0.93;;
18929;SDS011;43305;52.186;5.598;2023-12-22T03:12:37;10.52;;;1.27;;
18929;SDS011;43305;52.186;5.598;2023-12-22T03:15:06;5.80;;;0.90;;
18929;SDS011;43305;52.186;5.598;2023-12-22T03:17:33;7.22;;;0.70;;
18929;SDS011;43305;52.186;5.598;2023-12-22T03:20:00;7.88;;;1.15;;
18929;SDS011;43305;52.186;5.598;2023-12-22T03:22:27;8.13;;;1.02;;
18929;SDS011;43305;52.186;5.598;2023-12-22T03:24:54;6.93;;;1.00;;
18929;SDS011;43305;52.186;5.598;2023-12-22T03:27:21;7.28;;;1.20;;
18929;SDS011;43305;52.186;5.598;2023-12-22T03:29:47;6.50;;;1.25;;
18929;SDS011;43305;52.186;5.598;2023-12-22T03:32:16;6.80;;;1.02;;
18929;SDS011;43305;52.186;5.598;2023-12-22T03:34:43;10.02;;;0.95;;
18929;SDS011;43305;52.186;5.598;2023-12-22T03:37:10;10.15;;;0.82;;
18929;SDS011;43305;52.186;5.598;2023-12-22T03:39:37;9.50;;;1.10;;
18929;SDS011;43305;52.186;5.598;2023-12-22T03:42:04;8.15;;;1.25;;
18929;SDS011;43305;52.186;5.598;2023-12-22T03:44:31;11.68;;;1.45;;
18929;SDS011;43305;52.186;5.598;2023-12-22T03:46:57;13.25;;;1.63;;
18929;SDS011;43305;52.186;5.598;2023-12-22T03:49:28;12.50;;;1.48;;
18929;SDS011;43305;52.186;5.598;2023-12-22T03:51:55;9.25;;;1.35;;
18929;SDS011;43305;52.186;5.598;2023-12-22T03:54:22;12.70;;;1.70;;
18929;SDS011;43305;52.186;5.598;2023-12-22T03:56:52;12.98;;;1.38;;
18929;SDS011;43305;52.186;5.598;2023-12-22T03:59:21;9.65;;;0.93;;
18929;SDS011;43305;52.186;5.598;2023-12-22T04:01:51;12.10;;;1.27;;
18929;SDS011;43305;52.186;5.598;2023-12-22T04:04:20;6.75;;;1.05;;
18929;SDS011;43305;52.186;5.598;2023-12-22T04:06:49;9.70;;;1.30;;
18929;SDS011;43305;52.186;5.598;2023-12-22T04:09:16;14.00;;;1.77;;
18929;SDS011;43305;52.186;5.598;2023-12-22T04:11:43;11.60;;;1.77;;
18929;SDS011;43305;52.186;5.598;2023-12-22T04:14:10;16.70;;;2.08;;
18929;SDS011;43305;52.186;5.598;2023-12-22T04:16:37;13.73;;;1.90;;
18929;SDS011;43305;52.186;5.598;2023-12-22T04:19:04;19.58;;;2.13;;
18929;SDS011;43305;52.186;5.598;2023-12-22T04:21:30;16.17;;;2.42;;
18929;SDS011;43305;52.186;5.598;2023-12-22T04:23:59;19.33;;;2.20;;
18929;SDS011;43305;52.186;5.598;2023-12-22T04:26:25;19.30;;;2.50;;
18929;SDS011;43305;52.186;5.598;2023-12-22T04:28:52;16.85;;;3.00;;
18929;SDS011;43305;52.186;5.598;2023-12-22T04:31:19;17.83;;;1.90;;
18929;SDS011;43305;52.186;5.598;2023-12-22T04:33:46;25.25;;;3.05;;
18929;SDS011;43305;52.186;5.598;2023-12-22T04:36:13;23.08;;;2.75;;
18929;SDS011;43305;52.186;5.598;2023-12-22T04:38:41;23.83;;;2.88;;
18929;SDS011;43305;52.186;5.598;2023-12-22T04:41:09;20.02;;;2.40;;
18929;SDS011;43305;52.186;5.598;2023-12-22T04:43:36;30.25;;;2.83;;
18929;SDS011;43305;52.186;5.598;2023-12-22T04:46:05;20.58;;;2.80;;
18929;SDS011;43305;52.186;5.598;2023-12-22T04:48:32;16.20;;;2.47;;
18929;SDS011;43305;52.186;5.598;2023-12-22T04:50:59;16.70;;;2.30;;
18929;SDS011;43305;52.186;5.598;2023-12-22T04:53:27;20.00;;;2.65;;
18929;SDS011;43305;52.186;5.598;2023-12-22T04:55:53;21.58;;;2.55;;
18929;SDS011;43305;52.186;5.598;2023-12-22T04:58:22;27.02;;;2.78;;
18929;SDS011;43305;52.186;5.598;2023-12-22T05:00:49;29.08;;;2.67;;
18929;SDS011;43305;52.186;5.598;2023-12-22T05:03:16;21.52;;;2.58;;
18929;SDS011;43305;52.186;5.598;2023-12-22T05:05:42;19.52;;;2.95;;
18929;SDS011;43305;52.186;5.598;2023-12-22T05:08:12;19.95;;;2.85;;
18929;SDS011;43305;52.186;5.598;2023-12-22T05:10:41;24.00;;;2.92;;
18929;SDS011;43305;52.186;5.598;2023-12-22T05:13:09;22.80;;;2.83;;
18929;SDS011;43305;52.186;5.598;2023-12-22T05:15:37;23.05;;;2.92;;
18929;SDS011;43305;52.186;5.598;2023-12-22T05:18:04;27.20;;;2.72;;
18929;SDS011;43305;52.186;5.598;2023-12-22T05:20:31;25.58;;;2.88;;
18929;SDS011;43305;52.186;5.598;2023-12-22T05:22:58;24.23;;;3.00;;
18929;SDS011;43305;52.186;5.598;2023-12-22T05:25:25;24.13;;;2.53;;
18929;SDS011;43305;52.186;5.598;2023-12-22T05:27:52;31.40;;;2.85;;
18929;SDS011;43305;52.186;5.598;2023-12-22T05:30:19;30.02;;;2.60;;
18929;SDS011;43305;52.186;5.598;2023-12-22T05:32:47;29.50;;;3.15;;
18929;SDS011;43305;52.186;5.598;2023-12-22T05:35:14;20.75;;;3.15;;
18929;SDS011;43305;52.186;5.598;2023-12-22T05:37:41;24.45;;;3.58;;
18929;SDS011;43305;52.186;5.598;2023-12-22T05:40:08;26.23;;;3.30;;
18929;SDS011;43305;52.186;5.598;2023-12-22T05:42:36;25.88;;;2.63;;
18929;SDS011;43305;52.186;5.598;2023-12-22T05:45:03;34.08;;;4.05;;
18929;SDS011;43305;52.186;5.598;2023-12-22T05:47:31;27.75;;;3.58;;
18929;SDS011;43305;52.186;5.598;2023-12-22T05:49:59;24.58;;;2.75;;
18929;SDS011;43305;52.186;5.598;2023-12-22T05:52:26;23.33;;;2.92;;
18929;SDS011;43305;52.186;5.598;2023-12-22T05:54:53;27.65;;;3.83;;
18929;SDS011;43305;52.186;5.598;2023-12-22T05:57:20;37.88;;;3.80;;
18929;SDS011;43305;52.186;5.598;2023-12-22T05:59:47;18.73;;;2.70;;
18929;SDS011;43305;52.186;5.598;2023-12-22T06:02:14;30.33;;;3.13;;
18929;SDS011;43305;52.186;5.598;2023-12-22T06:04:41;20.83;;;2.45;;
18929;SDS011;43305;52.186;5.598;2023-12-22T06:07:10;20.35;;;2.90;;
18929;SDS011;43305;52.186;5.598;2023-12-22T06:09:37;13.38;;;2.45;;
18929;SDS011;43305;52.186;5.598;2023-12-22T06:12:04;14.77;;;2.40;;
18929;SDS011;43305;52.186;5.598;2023-12-22T06:14:32;17.55;;;2.30;;
18929;SDS011;43305;52.186;5.598;2023-12-22T06:17:00;21.55;;;2.08;;
18929;SDS011;43305;52.186;5.598;2023-12-22T06:19:27;23.00;;;2.95;;
18929;SDS011;43305;52.186;5.598;2023-12-22T06:21:55;20.38;;;2.50;;
18929;SDS011;43305;52.186;5.598;2023-12-22T06:24:23;15.77;;;2.25;;
18929;SDS011;43305;52.186;5.598;2023-12-22T06:26:50;19.55;;;2.22;;
18929;SDS011;43305;52.186;5.598;2023-12-22T06:29:17;17.83;;;2.35;;
18929;SDS011;43305;52.186;5.598;2023-12-22T06:31:46;13.63;;;2.30;;
18929;SDS011;43305;52.186;5.598;2023-12-22T06:34:15;19.63;;;2.70;;
18929;SDS011;43305;52.186;5.598;2023-12-22T06:36:42;20.73;;;2.75;;
18929;SDS011;43305;52.186;5.598;2023-12-22T06:39:12;20.55;;;2.78;;
18929;SDS011;43305;52.186;5.598;2023-12-22T06:41:40;17.40;;;2.20;;
18929;SDS011;43305;52.186;5.598;2023-12-22T06:44:07;18.25;;;2.60;;
18929;SDS011;43305;52.186;5.598;2023-12-22T06:46:35;18.10;;;2.97;;
18929;SDS011;43305;52.186;5.598;2023-12-22T06:49:02;15.43;;;2.55;;
18929;SDS011;43305;52.186;5.598;2023-12-22T06:51:30;23.20;;;2.60;;
18929;SDS011;43305;52.186;5.598;2023-12-22T06:54:00;24.08;;;2.75;;
18929;SDS011;43305;52.186;5.598;2023-12-22T06:56:27;19.15;;;2.58;;
18929;SDS011;43305;52.186;5.598;2023-12-22T06:58:56;16.20;;;2.85;;
18929;SDS011;43305;52.186;5.598;2023-12-22T07:01:24;22.98;;;3.00;;
18929;SDS011;43305;52.186;5.598;2023-12-22T07:03:52;31.85;;;3.53;;
18929;SDS011;43305;52.186;5.598;2023-12-22T07:06:20;21.55;;;4.38;;
18929;SDS011;43305;52.186;5.598;2023-12-22T07:11:53;29.75;;;4.10;;
18929;SDS011;43305;52.186;5.598;2023-12-22T07:14:22;26.25;;;3.90;;
18929;SDS011;43305;52.186;5.598;2023-12-22T07:16:49;28.23;;;3.28;;
18929;SDS011;43305;52.186;5.598;2023-12-22T07:19:16;28.45;;;2.95;;
18929;SDS011;43305;52.186;5.598;2023-12-22T07:21:46;22.13;;;3.58;;
18929;SDS011;43305;52.186;5.598;2023-12-22T07:24:15;20.20;;;2.95;;
18929;SDS011;43305;52.186;5.598;2023-12-22T07:26:46;30.60;;;3.83;;
18929;SDS011;43305;52.186;5.598;2023-12-22T07:29:16;28.88;;;3.38;;
18929;SDS011;43305;52.186;5.598;2023-12-22T07:31:47;23.02;;;3.70;;
18929;SDS011;43305;52.186;5.598;2023-12-22T07:34:14;22.45;;;3.22;;
18929;SDS011;43305;52.186;5.598;2023-12-22T07:36:41;22.55;;;3.30;;
18929;SDS011;43305;52.186;5.598;2023-12-22T07:39:11;34.17;;;3.97;;
18929;SDS011;43305;52.186;5.598;2023-12-22T07:41:38;28.00;;;4.85;;
18929;SDS011;43305;52.186;5.598;2023-12-22T07:44:05;25.50;;;3.35;;
18929;SDS011;43305;52.186;5.598;2023-12-22T07:46:31;22.50;;;3.50;;
18929;SDS011;43305;52.186;5.598;2023-12-22T07:49:00;31.25;;;4.43;;
18929;SDS011;43305;52.186;5.598;2023-12-22T07:51:26;31.13;;;3.97;;
18929;SDS011;43305;52.186;5.598;2023-12-22T07:53:53;41.38;;;4.28;;
18929;SDS011;43305;52.186;5.598;2023-12-22T07:56:20;33.25;;;4.25;;
18929;SDS011;43305;52.186;5.598;2023-12-22T07:58:47;24.98;;;4.28;;
18929;SDS011;43305;52.186;5.598;2023-12-22T08:01:15;29.65;;;3.90;;
18929;SDS011;43305;52.186;5.598;2023-12-22T08:03:42;23.33;;;4.43;;
18929;SDS011;43305;52.186;5.598;2023-12-22T08:06:12;41.38;;;13.05;;
18929;SDS011;43305;52.186;5.598;2023-12-22T08:08:42;21.88;;;3.70;;
18929;SDS011;43305;52.186;5.598;2023-12-22T08:11:11;13.95;;;2.33;;
18929;SDS011;43305;52.186;5.598;2023-12-22T08:13:37;16.65;;;2.65;;
18929;SDS011;43305;52.186;5.598;2023-12-22T08:16:05;10.75;;;2.00;;
18929;SDS011;43305;52.186;5.598;2023-12-22T08:18:32;17.75;;;2.17;;
18929;SDS011;43305;52.186;5.598;2023-12-22T08:20:59;16.00;;;2.20;;
18929;SDS011;43305;52.186;5.598;2023-12-22T08:23:27;15.65;;;3.22;;
18929;SDS011;43305;52.186;5.598;2023-12-22T08:25:54;25.15;;;5.60;;
18929;SDS011;43305;52.186;5.598;2023-12-22T08:28:22;21.98;;;5.05;;
18929;SDS011;43305;52.186;5.598;2023-12-22T08:30:49;24.35;;;3.63;;
18929;SDS011;43305;52.186;5.598;2023-12-22T08:33:17;34.30;;;4.80;;
18929;SDS011;43305;52.186;5.598;2023-12-22T08:35:46;30.83;;;4.50;;
18929;SDS011;43305;52.186;5.598;2023-12-22T08:38:13;31.90;;;3.92;;
18929;SDS011;43305;52.186;5.598;2023-12-22T08:40:41;39.40;;;4.65;;
18929;SDS011;43305;52.186;5.598;2023-12-22T08:43:10;32.55;;;4.07;;
18929;SDS011;43305;52.186;5.598;2023-12-22T08:45:37;33.28;;;4.50;;
18929;SDS011;43305;52.186;5.598;2023-12-22T08:48:05;38.25;;;4.60;;
18929;SDS011;43305;52.186;5.598;2023-12-22T08:50:32;32.30;;;4.40;;
18929;SDS011;43305;52.186;5.598;2023-12-22T08:53:00;29.85;;;4.70;;
18929;SDS011;43305;52.186;5.598;2023-12-22T08:55:27;27.13;;;4.57;;
18929;SDS011;43305;52.186;5.598;2023-12-22T08:57:55;34.13;;;4.68;;
18929;SDS011;43305;52.186;5.598;2023-12-22T09:00:22;29.73;;;4.65;;
18929;SDS011;43305;52.186;5.598;2023-12-22T09:02:51;30.95;;;3.97;;
18929;SDS011;43305;52.186;5.598;2023-12-22T09:05:19;19.15;;;3.13;;
18929;SDS011;43305;52.186;5.598;2023-12-22T09:07:46;18.20;;;3.10;;
18929;SDS011;43305;52.186;5.598;2023-12-22T09:10:16;24.33;;;3.50;;
18929;SDS011;43305;52.186;5.598;2023-12-22T09:12:46;32.10;;;4.03;;
18929;SDS011;43305;52.186;5.598;2023-12-22T09:15:14;20.55;;;3.33;;
18929;SDS011;43305;52.186;5.598;2023-12-22T09:17:41;28.13;;;4.45;;
18929;SDS011;43305;52.186;5.598;2023-12-22T09:20:11;20.80;;;3.03;;
18929;SDS011;43305;52.186;5.598;2023-12-22T09:22:38;28.52;;;3.30;;
18929;SDS011;43305;52.186;5.598;2023-12-22T09:25:05;21.42;;;3.15;;
18929;SDS011;43305;52.186;5.598;2023-12-22T09:27:33;22.98;;;3.03;;
18929;SDS011;43305;52.186;5.598;2023-12-22T09:30:00;21.90;;;3.45;;
18929;SDS011;43305;52.186;5.598;2023-12-22T09:32:29;22.02;;;3.20;;
18929;SDS011;43305;52.186;5.598;2023-12-22T09:34:56;23.90;;;3.78;;
18929;SDS011;43305;52.186;5.598;2023-12-22T09:37:24;22.23;;;3.38;;
18929;SDS011;43305;52.186;5.598;2023-12-22T09:39:51;21.23;;;3.20;;
18929;SDS011;43305;52.186;5.598;2023-12-22T09:42:17;20.27;;;2.80;;
18929;SDS011;43305;52.186;5.598;2023-12-22T09:44:45;11.70;;;2.03;;
18929;SDS011;43305;52.186;5.598;2023-12-22T09:47:18;11.50;;;2.33;;
18929;SDS011;43305;52.186;5.598;2023-12-22T09:49:49;15.63;;;2.00;;
18929;SDS011;43305;52.186;5.598;2023-12-22T09:52:18;8.88;;;1.48;;
18929;SDS011;43305;52.186;5.598;2023-12-22T09:54:48;11.85;;;1.63;;
18929;SDS011;43305;52.186;5.598;2023-12-22T09:57:20;9.73;;;1.38;;
18929;SDS011;43305;52.186;5.598;2023-12-22T09:59:50;9.93;;;1.45;;
18929;SDS011;43305;52.186;5.598;2023-12-22T10:02:18;7.65;;;1.40;;
18929;SDS011;43305;52.186;5.598;2023-12-22T10:04:51;7.50;;;1.40;;
18929;SDS011;43305;52.186;5.598;2023-12-22T10:07:17;7.85;;;1.10;;
18929;SDS011;43305;52.186;5.598;2023-12-22T10:09:46;6.65;;;1.30;;
18929;SDS011;43305;52.186;5.598;2023-12-22T10:12:16;6.85;;;1.30;;
18929;SDS011;43305;52.186;5.598;2023-12-22T10:14:48;6.75;;;1.30;;
18929;SDS011;43305;52.186;5.598;2023-12-22T10:17:22;10.80;;;1.63;;
18929;SDS011;43305;52.186;5.598;2023-12-22T10:19:50;10.48;;;1.55;;
18929;SDS011;43305;52.186;5.598;2023-12-22T10:22:17;8.70;;;1.90;;
18929;SDS011;43305;52.186;5.598;2023-12-22T10:24:46;13.55;;;2.05;;
18929;SDS011;43305;52.186;5.598;2023-12-22T10:27:16;15.93;;;2.05;;
18929;SDS011;43305;52.186;5.598;2023-12-22T10:29:47;14.65;;;2.13;;
18929;SDS011;43305;52.186;5.598;2023-12-22T10:32:17;14.65;;;2.38;;
18929;SDS011;43305;52.186;5.598;2023-12-22T10:34:44;12.13;;;1.70;;
18929;SDS011;43305;52.186;5.598;2023-12-22T10:37:14;15.10;;;1.77;;
18929;SDS011;43305;52.186;5.598;2023-12-22T10:39:41;12.68;;;2.42;;
18929;SDS011;43305;52.186;5.598;2023-12-22T10:42:13;13.00;;;1.80;;
18929;SDS011;43305;52.186;5.598;2023-12-22T10:44:44;13.88;;;2.15;;
18929;SDS011;43305;52.186;5.598;2023-12-22T10:47:11;16.77;;;2.30;;
18929;SDS011;43305;52.186;5.598;2023-12-22T10:49:38;12.43;;;1.88;;
18929;SDS011;43305;52.186;5.598;2023-12-22T10:52:06;13.82;;;2.35;;
18929;SDS011;43305;52.186;5.598;2023-12-22T10:54:41;14.90;;;2.30;;
18929;SDS011;43305;52.186;5.598;2023-12-22T10:57:09;11.52;;;1.80;;
18929;SDS011;43305;52.186;5.598;2023-12-22T10:59:37;14.02;;;1.95;;
18929;SDS011;43305;52.186;5.598;2023-12-22T11:02:16;10.55;;;1.33;;
18929;SDS011;43305;52.186;5.598;2023-12-22T11:04:47;16.58;;;1.83;;
18929;SDS011;43305;52.186;5.598;2023-12-22T11:07:23;13.07;;;1.90;;
18929;SDS011;43305;52.186;5.598;2023-12-22T11:09:50;6.93;;;1.55;;
18929;SDS011;43305;52.186;5.598;2023-12-22T11:12:23;13.82;;;1.70;;
18929;SDS011;43305;52.186;5.598;2023-12-22T11:14:50;13.48;;;1.52;;
18929;SDS011;43305;52.186;5.598;2023-12-22T11:17:20;11.88;;;1.83;;
18929;SDS011;43305;52.186;5.598;2023-12-22T11:19:52;10.85;;;1.45;;
18929;SDS011;43305;52.186;5.598;2023-12-22T11:22:20;12.45;;;1.85;;
18929;SDS011;43305;52.186;5.598;2023-12-22T11:24:50;11.95;;;1.95;;
18929;SDS011;43305;52.186;5.598;2023-12-22T11:27:17;8.43;;;1.50;;
18929;SDS011;43305;52.186;5.598;2023-12-22T11:29:48;29.90;;;2.38;;
18929;SDS011;43305;52.186;5.598;2023-12-22T11:32:17;11.23;;;1.65;;
18929;SDS011;43305;52.186;5.598;2023-12-22T11:34:44;14.45;;;2.05;;
18929;SDS011;43305;52.186;5.598;2023-12-22T11:37:13;15.32;;;2.05;;
18929;SDS011;43305;52.186;5.598;2023-12-22T11:39:42;13.55;;;1.67;;
18929;SDS011;43305;52.186;5.598;2023-12-22T11:42:11;11.32;;;1.48;;
18929;SDS011;43305;52.186;5.598;2023-12-22T11:44:42;12.75;;;1.48;;
18929;SDS011;43305;52.186;5.598;2023-12-22T11:47:12;9.38;;;1.40;;
18929;SDS011;43305;52.186;5.598;2023-12-22T11:49:40;19.67;;;1.73;;
18929;SDS011;43305;52.186;5.598;2023-12-22T11:52:11;10.93;;;1.27;;
18929;SDS011;43305;52.186;5.598;2023-12-22T11:54:47;8.98;;;1.48;;
18929;SDS011;43305;52.186;5.598;2023-12-22T11:57:35;13.15;;;1.77;;
18929;SDS011;43305;52.186;5.598;2023-12-22T12:00:06;11.20;;;1.55;;
18929;SDS011;43305;52.186;5.598;2023-12-22T12:02:36;11.73;;;1.70;;
18929;SDS011;43305;52.186;5.598;2023-12-22T12:05:04;10.07;;;1.70;;
18929;SDS011;43305;52.186;5.598;2023-12-22T12:07:42;10.93;;;1.58;;
18929;SDS011;43305;52.186;5.598;2023-12-22T12:13:15;14.82;;;2.08;;
18929;SDS011;43305;52.186;5.598;2023-12-22T12:15:52;9.48;;;1.73;;
18929;SDS011;43305;52.186;5.598;2023-12-22T12:18:21;19.48;;;2.00;;
18929;SDS011;43305;52.186;5.598;2023-12-22T12:20:49;12.02;;;1.70;;
18929;SDS011;43305;52.186;5.598;2023-12-22T12:23:16;11.38;;;1.33;;
18929;SDS011;43305;52.186;5.598;2023-12-22T12:25:43;11.20;;;1.52;;
18929;SDS011;43305;52.186;5.598;2023-12-22T12:28:10;12.13;;;1.70;;
18929;SDS011;43305;52.186;5.598;2023-12-22T12:30:39;12.85;;;1.55;;
18929;SDS011;43305;52.186;5.598;2023-12-22T12:33:06;11.55;;;1.83;;
18929;SDS011;43305;52.186;5.598;2023-12-22T12:35:34;14.43;;;1.77;;
18929;SDS011;43305;52.186;5.598;2023-12-22T12:38:02;12.35;;;1.80;;
18929;SDS011;43305;52.186;5.598;2023-12-22T12:40:30;17.42;;;3.13;;
18929;SDS011;43305;52.186;5.598;2023-12-22T12:42:59;13.15;;;1.73;;
18929;SDS011;43305;52.186;5.598;2023-12-22T12:45:27;13.50;;;1.73;;
18929;SDS011;43305;52.186;5.598;2023-12-22T12:47:56;10.15;;;1.58;;
18929;SDS011;43305;52.186;5.598;2023-12-22T12:50:24;12.70;;;1.70;;
18929;SDS011;43305;52.186;5.598;2023-12-22T12:52:51;11.90;;;1.83;;
18929;SDS011;43305;52.186;5.598;2023-12-22T12:55:19;9.77;;;1.77;;
18929;SDS011;43305;52.186;5.598;2023-12-22T12:57:47;13.60;;;1.85;;
18929;SDS011;43305;52.186;5.598;2023-12-22T13:00:23;17.38;;;1.95;;
18929;SDS011;43305;52.186;5.598;2023-12-22T13:02:51;13.38;;;1.55;;
18929;SDS011;43305;52.186;5.598;2023-12-22T13:05:22;12.13;;;1.38;;
18929;SDS011;43305;52.186;5.598;2023-12-22T13:07:49;13.73;;;2.00;;
18929;SDS011;43305;52.186;5.598;2023-12-22T13:10:19;11.10;;;1.50;;
18929;SDS011;43305;52.186;5.598;2023-12-22T13:12:46;13.13;;;2.00;;
18929;SDS011;43305;52.186;5.598;2023-12-22T13:15:15;13.30;;;1.80;;
18929;SDS011;43305;52.186;5.598;2023-12-22T13:17:44;12.95;;;1.50;;
18929;SDS011;43305;52.186;5.598;2023-12-22T13:20:15;14.73;;;1.70;;
18929;SDS011;43305;52.186;5.598;2023-12-22T13:22:44;16.00;;;2.05;;
18929;SDS011;43305;52.186;5.598;2023-12-22T13:25:11;11.20;;;1.42;;
18929;SDS011;43305;52.186;5.598;2023-12-22T13:27:44;9.93;;;2.05;;
18929;SDS011;43305;52.186;5.598;2023-12-22T13:30:18;11.93;;;1.80;;
18929;SDS011;43305;52.186;5.598;2023-12-22T13:32:58;16.27;;;2.13;;
18929;SDS011;43305;52.186;5.598;2023-12-22T13:35:25;9.63;;;1.65;;
18929;SDS011;43305;52.186;5.598;2023-12-22T13:37:55;17.13;;;1.60;;
18929;SDS011;43305;52.186;5.598;2023-12-22T13:40:22;20.05;;;1.85;;
18929;SDS011;43305;52.186;5.598;2023-12-22T13:42:53;8.05;;;1.67;;
18929;SDS011;43305;52.186;5.598;2023-12-22T13:45:20;13.30;;;1.45;;
18929;SDS011;43305;52.186;5.598;2023-12-22T13:47:47;11.10;;;1.50;;
18929;SDS011;43305;52.186;5.598;2023-12-22T13:50:15;10.35;;;1.35;;
18929;SDS011;43305;52.186;5.598;2023-12-22T13:52:43;9.70;;;1.67;;
18929;SDS011;43305;52.186;5.598;2023-12-22T13:55:15;9.98;;;1.50;;
18929;SDS011;43305;52.186;5.598;2023-12-22T13:57:48;9.35;;;1.80;;
18929;SDS011;43305;52.186;5.598;2023-12-22T14:00:24;13.48;;;1.63;;
18929;SDS011;43305;52.186;5.598;2023-12-22T14:02:53;14.43;;;3.75;;
18929;SDS011;43305;52.186;5.598;2023-12-22T14:05:20;19.83;;;9.95;;
18929;SDS011;43305;52.186;5.598;2023-12-22T14:07:47;21.63;;;9.77;;
18929;SDS011;43305;52.186;5.598;2023-12-22T14:10:16;9.88;;;3.28;;
18929;SDS011;43305;52.186;5.598;2023-12-22T14:12:42;12.60;;;2.28;;
18929;SDS011;43305;52.186;5.598;2023-12-22T14:15:15;12.02;;;1.80;;
18929;SDS011;43305;52.186;5.598;2023-12-22T14:17:45;11.65;;;1.85;;
18929;SDS011;43305;52.186;5.598;2023-12-22T14:20:14;15.18;;;2.00;;
18929;SDS011;43305;52.186;5.598;2023-12-22T14:22:45;11.77;;;1.63;;
18929;SDS011;43305;52.186;5.598;2023-12-22T14:25:15;14.10;;;2.63;;
18929;SDS011;43305;52.186;5.598;2023-12-22T14:27:44;18.10;;;3.03;;
18929;SDS011;43305;52.186;5.598;2023-12-22T14:30:11;16.70;;;2.85;;
18929;SDS011;43305;52.186;5.598;2023-12-22T14:32:44;17.60;;;2.40;;
18929;SDS011;43305;52.186;5.598;2023-12-22T14:35:11;16.25;;;1.83;;
18929;SDS011;43305;52.186;5.598;2023-12-22T14:37:38;18.73;;;2.10;;
18929;SDS011;43305;52.186;5.598;2023-12-22T14:40:05;19.60;;;2.67;;
18929;SDS011;43305;52.186;5.598;2023-12-22T14:42:34;18.55;;;2.35;;
18929;SDS011;43305;52.186;5.598;2023-12-22T14:45:01;16.67;;;2.60;;
18929;SDS011;43305;52.186;5.598;2023-12-22T14:47:29;12.50;;;2.08;;
18929;SDS011;43305;52.186;5.598;2023-12-22T14:49:56;12.65;;;1.70;;